Weather at Leeds Bradford Airport

Public forecast

Using degrees Celsius for public forecast. Weather courtesy of forecast.io.

Current aviation weather report (METAR) for Leeds Bradford Airport

Report is more than 6 hours old.

2022/11/14 15:20 (retrieved 2 years ago)

EGNM 141520Z 10005KT 0100 R14/0175N FG VV/// 09/09 Q1005

Aviation forecast (TAF) for Leeds Bradford Airport

Forecast is more than 12 hours old.

2023/02/22 18:00 (retrieved 1 year ago)

TAF EGNM 221654Z 2218/2318 35012KT 9999 SCT020 PROB30 TEMPO 2218/2308 32015G25KT PROB30 TEMPO 2218/2303 6000 SHRA BKN008 BECMG 2312/2315 27005KT